Bookmark and Share
Track history (hours):
 

First Ferry Viii

Last reported at 2014-Apr-16 06:06 UTC. Time now 2014-Apr-17 15:34 UTC.
Position N 22°16' E 114°06'.

Length 36 m; draft 1.8 m.

Type: High speed craft. MMSI: 477995030.

NotesDate/timePositionNaut miles runAvg speedWind from/ knotsBaromVisibWave heightAir tempDewpointWater temp
2014-Apr-16 06:06N 22°16' E 114°06'4 2.2
2014-Apr-16 04:18N 22°17' E 114°10'0 0.0
2014-Apr-16 01:33N 22°17' E 114°09'1 1.0
2014-Apr-16 00:09N 22°18' E 114°08'2 0.1
2014-Apr-15 08:30N 22°17' E 114°10'1 0.1
2014-Apr-14 22:29N 22°17' E 114°10'0 0.0
2014-Apr-14 15:34N 22°18' E 114°09'1 0.1
2014-Apr-14 05:31N 22°18' E 114°09'1 0.1
2014-Apr-13 12:33N 22°18' E 114°09'0 0.1
2014-Apr-13 09:09N 22°18' E 114°08'1 2.2
2014-Apr-13 08:28N 22°17' E 114°10'1 0.6
2014-Apr-13 06:11N 22°18' E 114°08'1 0.4
2014-Apr-13 03:33N 22°17' E 114°09'1 0.6
2014-Apr-13 02:08N 22°18' E 114°08'0 0.1
2014-Apr-12 23:10N 22°18' E 114°08'1 0.2
2014-Apr-12 15:32N 22°17' E 114°10'1 0.6
2014-Apr-12 14:06N 22°18' E 114°09'1 1.2
2014-Apr-12 13:26N 22°17' E 114°10'1 0.9
2014-Apr-12 12:08N 22°18' E 114°08'0 0.3
2014-Apr-12 11:34N 22°18' E 114°09'0 0.3
2014-Apr-12 10:29N 22°18' E 114°08'1 0.6
2014-Apr-12 08:19N 22°17' E 114°10'0 0.0
2014-Apr-12 06:30N 22°17' E 114°10'1 0.4
2014-Apr-12 03:05N 22°18' E 114°11'2 2.5
2014-Apr-12 02:20N 22°19' E 114°09'1 0.7
2014-Apr-12 00:33N 22°17' E 114°10'1 1.2
2014-Apr-11 23:19N 22°18' E 114°08'1 0.2
2014-Apr-11 15:33N 22°17' E 114°10'1 0.8
2014-Apr-11 14:07N 22°18' E 114°08'1 2.1
2014-Apr-11 13:32N 22°17' E 114°10'2 1.1
2014-Apr-11 12:09N 22°18' E 114°08'0 0.2
2014-Apr-11 10:30N 22°18' E 114°08'1 0.5
2014-Apr-11 08:18N 22°17' E 114°10'0 0.1
2014-Apr-11 06:25N 22°17' E 114°10'1 0.2
2014-Apr-11 02:15N 22°17' E 114°11'1 0.6
2014-Apr-11 00:33N 22°17' E 114°09'1 1.1
2014-Apr-10 23:18N 22°18' E 114°08'8 1.2
2014-Apr-10 17:05N 22°13' E 114°02'9 5.6
2014-Apr-10 15:32N 22°17' E 114°10'9 8.6
2014-Apr-10 14:30N 22°13' E 114°01'9 9.3
2014-Apr-10 13:33N 22°17' E 114°10'1 0.9
2014-Apr-10 12:09N 22°18' E 114°08'1 1.1
2014-Apr-10 11:33N 22°17' E 114°09'1 0.7
2014-Apr-10 10:29N 22°18' E 114°08'1 0.6
2014-Apr-10 08:26N 22°17' E 114°10'1 0.2
2014-Apr-10 02:17N 22°19' E 114°09'1 0.8
2014-Apr-10 00:33N 22°17' E 114°09'1 1.1
2014-Apr-09 23:18N 22°18' E 114°08'1 0.2
2014-Apr-09 15:32N 22°17' E 114°10'1 1.0
2014-Apr-09 14:10N 22°18' E 114°08'1 2.1
2014-Apr-09 13:32N 22°17' E 114°10'1 1.0
2014-Apr-09 12:09N 22°18' E 114°08'1 1.6
2014-Apr-09 11:33N 22°17' E 114°09'1 0.9
2014-Apr-09 10:28N 22°18' E 114°08'1 0.2
2014-Apr-09 02:18N 22°19' E 114°09'1 0.6
2014-Apr-09 00:33N 22°17' E 114°09'1 1.0
2014-Apr-08 23:18N 22°18' E 114°08'8 1.5
2014-Apr-08 18:13N 22°13' E 114°02'9 3.2
2014-Apr-08 15:32N 22°17' E 114°10'1 1.0
2014-Apr-08 14:09N 22°18' E 114°08'1 2.3
2014-Apr-08 13:32N 22°17' E 114°10'1 0.9
2014-Apr-08 12:09N 22°18' E 114°08'1 2.0
2014-Apr-08 11:33N 22°17' E 114°10'1 1.3
2014-Apr-08 10:28N 22°18' E 114°08'1 0.7
2014-Apr-08 08:18N 22°17' E 114°10'0 0.0
2014-Apr-08 06:30N 22°17' E 114°10'1 0.4
2014-Apr-08 03:10N 22°18' E 114°11'2 2.2
2014-Apr-08 02:18N 22°19' E 114°09'1 0.6
2014-Apr-08 00:33N 22°17' E 114°09'1 1.1
2014-Apr-07 23:19N 22°18' E 114°08'2 0.2
2014-Apr-07 15:32N 22°17' E 114°10'1 1.1
2014-Apr-07 14:10N 22°18' E 114°08'1 2.5
2014-Apr-07 13:33N 22°17' E 114°10'2 1.1
2014-Apr-07 12:09N 22°18' E 114°08'1 2.3
2014-Apr-07 11:33N 22°17' E 114°09'2 1.6
2014-Apr-07 10:31N 22°18' E 114°08'2 0.8
2014-Apr-07 08:18N 22°17' E 114°10'0 0.0
2014-Apr-07 06:30N 22°17' E 114°10'1 0.3
2014-Apr-07 02:20N 22°18' E 114°11'2 1.1
2014-Apr-07 00:33N 22°18' E 114°09'1 0.7
2014-Apr-06 23:18N 22°18' E 114°08'1 0.2
2014-Apr-06 15:32N 22°17' E 114°10'1 1.0
2014-Apr-06 14:09N 22°18' E 114°08'1 2.1
2014-Apr-06 13:33N 22°17' E 114°09'1 0.8
2014-Apr-06 12:09N 22°18' E 114°08'1 2.2
2014-Apr-06 11:33N 22°17' E 114°10'2 1.3
2014-Apr-06 10:09N 22°18' E 114°08'2 3.0
2014-Apr-06 09:32N 22°17' E 114°10'1 1.0
2014-Apr-06 08:08N 22°18' E 114°08'1 2.0
2014-Apr-06 07:26N 22°17' E 114°10'1 1.0
2014-Apr-06 06:08N 22°18' E 114°08'  

Dump ship's entire track history

sailing weather and tide predictions

First Ferry Viii — VRS4306 — position and weather